createdAt,value
2023-05-05T00:01:07.477Z,99.50
2023-05-05T00:03:37.875Z,99.60
2023-05-05T00:06:08.732Z,99.80
2023-05-05T00:08:40.172Z,99.80
2023-05-05T00:11:09.896Z,99.70
2023-05-05T00:13:40.328Z,99.70
2023-05-05T00:16:10.539Z,99.70
2023-05-05T00:18:40.146Z,99.90
2023-05-05T00:21:09.748Z,99.70
2023-05-05T00:23:41.393Z,99.90
2023-05-05T00:26:11.128Z,99.90
2023-05-05T00:28:41.335Z,99.90
2023-05-05T00:31:11.193Z,99.90
2023-05-05T00:33:41.058Z,99.90
2023-05-05T00:36:11.288Z,99.90
2023-05-05T00:38:42.536Z,99.90
2023-05-05T00:41:12.561Z,99.90
2023-05-05T00:43:42.454Z,99.90
2023-05-05T00:46:20.206Z,99.90
2023-05-05T00:48:50.096Z,99.90
2023-05-05T00:51:21.437Z,99.90
2023-05-05T00:53:53.196Z,99.90
2023-05-05T00:56:25.144Z,99.90
2023-05-05T00:58:55.475Z,99.90
2023-05-05T01:01:25.298Z,99.90
2023-05-05T01:03:56.122Z,99.90
2023-05-05T01:06:44.248Z,99.90
2023-05-05T01:09:25.543Z,99.90
2023-05-05T01:12:03.273Z,99.90
2023-05-05T01:14:41.255Z,99.90
2023-05-05T01:17:18.220Z,99.90
2023-05-05T01:20:10.869Z,99.90
2023-05-05T01:22:44.566Z,99.90
2023-05-05T01:25:44.997Z,99.90
2023-05-05T01:28:29.883Z,99.90
2023-05-05T01:31:18.744Z,99.90
2023-05-05T01:33:52.634Z,99.90
2023-05-05T01:36:26.766Z,99.90
2023-05-05T01:38:59.928Z,99.90
2023-05-05T01:41:33.927Z,99.90
2023-05-05T01:44:06.935Z,99.90
2023-05-05T01:46:38.268Z,99.90
2023-05-05T01:49:13.499Z,99.90
2023-05-05T01:51:44.446Z,99.90
2023-05-05T01:54:15.488Z,99.90
2023-05-05T01:56:46.627Z,99.90
2023-05-05T01:59:17.470Z,99.90
2023-05-05T02:01:49.009Z,99.90
2023-05-05T02:04:23.137Z,99.90
2023-05-05T02:06:55.704Z,99.90
2023-05-05T02:09:28.591Z,99.90
2023-05-05T02:12:00.871Z,99.90
2023-05-05T02:14:32.514Z,99.90
2023-05-05T02:17:02.638Z,99.90
2023-05-05T02:19:43.826Z,99.90
2023-05-05T02:22:16.924Z,99.90
2023-05-05T02:24:47.232Z,99.90
2023-05-05T02:27:20.836Z,99.90
2023-05-05T02:29:53.714Z,99.90
2023-05-05T02:32:29.768Z,99.90
2023-05-05T02:35:04.613Z,99.90
2023-05-05T02:37:37.905Z,99.90
2023-05-05T02:40:09.588Z,99.90
2023-05-05T02:42:42.562Z,99.90
2023-05-05T02:45:17.743Z,99.90
2023-05-05T02:47:51.001Z,99.90
2023-05-05T02:50:23.137Z,99.90
2023-05-05T02:53:12.919Z,99.90
2023-05-05T02:55:48.953Z,99.90
2023-05-05T02:58:25.752Z,99.90
2023-05-05T03:01:05.311Z,99.90
2023-05-05T03:03:42.667Z,99.90
2023-05-05T03:06:19.679Z,99.90
2023-05-05T03:08:58.268Z,99.90
2023-05-05T03:11:34.937Z,99.90
2023-05-05T03:14:10.849Z,99.90
2023-05-05T03:16:44.282Z,99.90
2023-05-05T03:19:18.405Z,99.90
2023-05-05T03:21:52.825Z,99.90
2023-05-05T03:24:23.256Z,99.90
2023-05-05T03:27:03.471Z,99.90
2023-05-05T03:29:38.237Z,99.90
2023-05-05T03:32:12.371Z,99.90
2023-05-05T03:34:43.507Z,99.90
2023-05-05T03:37:14.552Z,99.90
2023-05-05T03:39:45.358Z,99.90
2023-05-05T03:42:15.075Z,99.90
2023-05-05T03:44:44.995Z,99.90
2023-05-05T03:47:14.808Z,99.90
2023-05-05T03:49:44.987Z,99.90
2023-05-05T03:52:16.679Z,99.90
2023-05-05T03:54:47.826Z,99.90
2023-05-05T03:57:17.625Z,99.90
2023-05-05T03:59:47.565Z,99.90
2023-05-05T04:02:18.906Z,99.90
2023-05-05T04:04:49.829Z,99.90
2023-05-05T04:07:23.228Z,99.90
2023-05-05T04:09:52.972Z,99.90
2023-05-05T04:12:23.160Z,99.90
2023-05-05T04:14:52.870Z,99.90
2023-05-05T04:17:22.990Z,99.90
2023-05-05T04:19:52.801Z,99.90
2023-05-05T04:22:24.153Z,99.90
2023-05-05T04:24:53.860Z,99.90
2023-05-05T04:27:26.534Z,99.90
2023-05-05T04:29:56.870Z,99.90
2023-05-05T04:32:27.554Z,99.90
2023-05-05T04:34:57.706Z,99.90
2023-05-05T04:37:29.779Z,99.90
2023-05-05T04:40:01.020Z,99.90
2023-05-05T04:42:31.855Z,99.90
2023-05-05T04:45:02.002Z,99.90
2023-05-05T04:47:32.928Z,99.90
2023-05-05T04:50:03.351Z,99.90
2023-05-05T04:52:34.811Z,99.90
2023-05-05T04:55:04.852Z,99.90
2023-05-05T04:57:36.253Z,99.90
2023-05-05T05:00:07.300Z,99.90
2023-05-05T05:02:38.060Z,99.90
2023-05-05T05:05:08.822Z,99.90
2023-05-05T05:07:40.043Z,99.90
2023-05-05T05:10:11.147Z,99.90
2023-05-05T05:12:40.924Z,99.90
2023-05-05T05:15:12.215Z,99.90
2023-05-05T05:17:42.164Z,99.90
2023-05-05T05:20:12.562Z,99.90
2023-05-05T05:22:43.705Z,99.90
2023-05-05T05:25:18.137Z,99.90
2023-05-05T05:27:58.527Z,99.90
2023-05-05T05:30:33.514Z,99.90
2023-05-05T05:33:03.782Z,99.90
2023-05-05T05:35:34.258Z,99.90
2023-05-05T05:38:06.336Z,99.90
2023-05-05T05:40:36.848Z,99.90
2023-05-05T05:43:06.868Z,99.90
2023-05-05T05:45:38.409Z,99.90
2023-05-05T05:48:09.609Z,99.90
2023-05-05T05:50:40.321Z,99.50
2023-05-05T05:53:11.750Z,99.30
2023-05-05T05:55:41.968Z,99.30
2023-05-05T05:58:12.333Z,99.20
2023-05-05T06:00:42.830Z,98.90
2023-05-05T06:03:14.839Z,98.90
2023-05-05T06:05:44.697Z,98.90
2023-05-05T06:08:16.243Z,99.00
2023-05-05T06:10:50.974Z,98.60
2023-05-05T06:13:22.737Z,98.50
2023-05-05T06:15:55.365Z,98.70
2023-05-05T06:18:26.103Z,98.30
2023-05-05T06:20:55.946Z,97.70
2023-05-05T06:23:31.193Z,97.80
2023-05-05T06:26:05.613Z,97.70
2023-05-05T06:28:35.383Z,97.90
2023-05-05T06:31:05.471Z,98.00
2023-05-05T06:33:35.377Z,98.20
2023-05-05T06:36:05.696Z,98.10
2023-05-05T06:38:37.025Z,98.20
2023-05-05T06:41:07.150Z,97.70
2023-05-05T06:43:37.066Z,97.60
2023-05-05T06:46:10.563Z,97.30
2023-05-05T06:48:40.320Z,97.30
2023-05-05T06:51:11.213Z,96.90
2023-05-05T06:53:42.769Z,96.50
2023-05-05T06:56:13.195Z,96.30
2023-05-05T06:58:42.999Z,96.20
2023-05-05T07:01:12.928Z,96.70
2023-05-05T07:03:43.051Z,96.30
2023-05-05T07:06:12.767Z,95.90
2023-05-05T07:08:44.202Z,95.80
2023-05-05T07:11:14.171Z,95.00
2023-05-05T07:13:44.028Z,94.80
2023-05-05T07:16:13.737Z,95.30
2023-05-05T07:18:43.344Z,95.20
2023-05-05T07:21:13.368Z,95.10
2023-05-05T07:23:46.769Z,94.40
2023-05-05T07:26:16.866Z,94.20
2023-05-05T07:28:46.896Z,93.60
2023-05-05T07:31:16.644Z,94.60
2023-05-05T07:33:46.511Z,93.80
2023-05-05T07:36:16.211Z,93.10
2023-05-05T07:38:50.132Z,93.90
2023-05-05T07:41:20.572Z,92.50
2023-05-05T07:43:50.256Z,93.00
2023-05-05T07:46:20.628Z,93.10
2023-05-05T07:48:50.906Z,92.10
2023-05-05T07:51:21.864Z,92.10
2023-05-05T07:53:53.718Z,91.70
2023-05-05T07:56:23.718Z,92.80
2023-05-05T07:58:53.228Z,92.40
2023-05-05T08:01:22.936Z,92.10
2023-05-05T08:03:52.827Z,90.60
2023-05-05T08:06:23.988Z,91.10
2023-05-05T08:08:55.565Z,91.80
2023-05-05T08:11:25.062Z,90.10
2023-05-05T08:13:54.771Z,90.90
2023-05-05T08:16:24.357Z,89.80
2023-05-05T08:18:54.487Z,90.10
2023-05-05T08:21:24.408Z,89.30
2023-05-05T08:23:55.651Z,89.10
2023-05-05T08:26:25.557Z,90.90
2023-05-05T08:29:01.114Z,90.00
2023-05-05T08:31:31.688Z,89.80
2023-05-05T08:34:01.661Z,90.40
2023-05-05T08:36:31.570Z,91.70
2023-05-05T08:39:03.429Z,90.90
2023-05-05T08:41:33.863Z,90.60
2023-05-05T08:44:04.303Z,91.30
2023-05-05T08:46:34.146Z,91.00
2023-05-05T08:49:05.235Z,88.80
2023-05-05T08:51:43.141Z,87.40
2023-05-05T08:54:20.727Z,90.00
2023-05-05T08:56:52.696Z,85.20
2023-05-05T08:59:25.691Z,86.20
2023-05-05T09:01:57.369Z,89.60
2023-05-05T09:04:27.659Z,82.70
2023-05-05T09:07:00.285Z,83.10
2023-05-05T09:09:32.297Z,87.80
2023-05-05T09:12:03.335Z,88.00
2023-05-05T09:14:33.152Z,82.70
2023-05-05T09:17:04.688Z,83.90
2023-05-05T09:19:34.630Z,84.10
2023-05-05T09:22:04.656Z,88.40
2023-05-05T09:24:36.014Z,83.10
2023-05-05T09:27:25.356Z,82.10
2023-05-05T09:29:56.806Z,82.30
2023-05-05T09:32:29.120Z,81.40
2023-05-05T09:35:01.339Z,81.40
2023-05-05T09:37:31.870Z,87.80
2023-05-05T09:40:04.297Z,82.20
2023-05-05T09:42:33.847Z,80.70
2023-05-05T09:45:03.968Z,79.40
2023-05-05T09:47:37.657Z,77.70
2023-05-05T09:50:08.499Z,77.30
2023-05-05T09:52:38.825Z,75.20
2023-05-05T09:55:19.914Z,76.60
2023-05-05T09:57:49.517Z,75.90
2023-05-05T10:00:19.927Z,73.80
2023-05-05T10:02:49.687Z,73.80
2023-05-05T10:05:20.692Z,74.40
2023-05-05T10:07:50.816Z,73.80
2023-05-05T10:10:22.196Z,75.90
2023-05-05T10:12:53.712Z,76.00
2023-05-05T10:15:25.368Z,76.60
2023-05-05T10:18:06.641Z,75.80
2023-05-05T10:20:40.445Z,76.10
2023-05-05T10:23:12.502Z,74.60
2023-05-05T10:25:48.571Z,72.50
2023-05-05T10:28:30.780Z,73.90
2023-05-05T10:31:12.761Z,73.80
2023-05-05T10:33:54.114Z,73.10
2023-05-05T10:36:24.796Z,71.20
2023-05-05T10:38:58.701Z,71.50
2023-05-05T10:41:32.508Z,71.20
2023-05-05T10:44:04.634Z,69.60
2023-05-05T10:46:35.940Z,70.20
2023-05-05T10:49:15.759Z,69.80
2023-05-05T10:51:54.083Z,68.00
2023-05-05T10:54:30.161Z,70.50
2023-05-05T10:57:05.173Z,69.00
2023-05-05T10:59:45.013Z,66.00
2023-05-05T11:02:26.353Z,65.90
2023-05-05T11:05:10.159Z,66.50
2023-05-05T11:07:40.252Z,64.70
2023-05-05T11:10:11.665Z,65.70
2023-05-05T11:13:22.744Z,65.40
2023-05-05T11:15:54.644Z,63.10
2023-05-05T11:18:36.392Z,61.70
2023-05-05T11:21:19.356Z,60.60
2023-05-05T11:23:50.806Z,60.60
2023-05-05T11:26:51.247Z,61.50
2023-05-05T11:29:23.090Z,60.20
2023-05-05T11:32:14.208Z,63.00
2023-05-05T11:34:51.287Z,60.30
2023-05-05T11:37:25.912Z,59.20
2023-05-05T11:40:09.677Z,61.30
2023-05-05T11:42:39.669Z,59.60
2023-05-05T11:45:24.451Z,58.70
2023-05-05T11:47:54.997Z,59.80
2023-05-05T11:50:25.081Z,60.30
2023-05-05T11:52:54.998Z,58.70
2023-05-05T11:55:25.211Z,58.90
2023-05-05T11:57:54.925Z,57.30
2023-05-05T12:00:35.927Z,57.20
2023-05-05T12:03:06.735Z,56.60
2023-05-05T12:05:38.696Z,56.60
2023-05-05T12:08:08.711Z,55.40
2023-05-05T12:10:38.326Z,55.30
2023-05-05T12:13:21.175Z,55.20
2023-05-05T12:15:57.006Z,55.30
2023-05-05T12:18:26.902Z,53.20
2023-05-05T12:20:56.505Z,54.20
2023-05-05T12:23:30.509Z,53.20
2023-05-05T12:26:00.551Z,56.30
2023-05-05T12:28:47.451Z,51.60
2023-05-05T12:31:21.077Z,52.40
2023-05-05T12:33:52.394Z,53.20
2023-05-05T12:36:22.723Z,52.30
2023-05-05T12:38:52.642Z,51.00
2023-05-05T12:41:22.754Z,50.60
2023-05-05T12:43:58.013Z,49.10
2023-05-05T12:46:32.311Z,49.60
2023-05-05T12:49:05.706Z,50.50
2023-05-05T12:51:36.438Z,49.90
2023-05-05T12:54:08.106Z,51.70
2023-05-05T12:56:39.446Z,49.20
2023-05-05T12:59:11.103Z,48.60
2023-05-05T13:01:51.948Z,49.10
2023-05-05T13:04:23.456Z,49.40
2023-05-05T13:07:11.972Z,47.80
2023-05-05T13:09:42.406Z,48.30
2023-05-05T13:12:13.032Z,48.00
2023-05-05T13:14:43.455Z,47.30
2023-05-05T13:17:15.408Z,46.50
2023-05-05T13:19:46.831Z,45.50
2023-05-05T13:22:16.900Z,45.20
2023-05-05T13:24:52.475Z,46.80
2023-05-05T13:27:22.760Z,46.20
2023-05-05T13:29:52.565Z,45.80
2023-05-05T13:32:24.060Z,46.00
2023-05-05T13:34:53.926Z,45.90
2023-05-05T13:37:23.550Z,47.80
2023-05-05T13:39:53.553Z,46.20
2023-05-05T13:42:23.372Z,43.10
2023-05-05T13:44:53.276Z,43.40
2023-05-05T13:47:24.686Z,44.50
2023-05-05T13:49:54.553Z,43.90
2023-05-05T13:52:24.357Z,44.30
2023-05-05T13:54:54.165Z,45.00
2023-05-05T13:57:24.086Z,45.30
2023-05-05T13:59:53.799Z,43.70
2023-05-05T14:02:25.533Z,43.10
2023-05-05T14:04:55.257Z,43.50
2023-05-05T14:07:25.093Z,41.40
2023-05-05T14:09:55.086Z,44.10
2023-05-05T14:12:25.050Z,39.10
2023-05-05T14:14:54.914Z,41.70
2023-05-05T14:17:26.065Z,41.70
2023-05-05T14:19:56.188Z,42.10
2023-05-05T14:22:26.195Z,42.60
2023-05-05T14:24:56.004Z,43.00
2023-05-05T14:27:25.715Z,40.20
2023-05-05T14:29:55.464Z,42.40
2023-05-05T14:32:27.085Z,42.90
2023-05-05T14:34:57.096Z,42.20
2023-05-05T14:37:27.149Z,42.00
2023-05-05T14:39:57.031Z,42.70
2023-05-05T14:42:27.905Z,43.40
2023-05-05T14:44:57.874Z,42.20
2023-05-05T14:47:29.330Z,42.20
2023-05-05T14:49:59.387Z,41.40
2023-05-05T14:52:29.045Z,41.70
2023-05-05T14:54:59.361Z,42.00
2023-05-05T14:57:29.185Z,41.30
2023-05-05T14:59:59.106Z,40.90
2023-05-05T15:02:30.526Z,42.20
2023-05-05T15:05:00.461Z,40.50
2023-05-05T15:07:30.285Z,41.90
2023-05-05T15:09:59.986Z,41.90
2023-05-05T15:12:30.776Z,41.70
2023-05-05T15:15:00.855Z,41.40
2023-05-05T15:17:32.812Z,41.20
2023-05-05T15:20:04.196Z,42.40
2023-05-05T15:22:34.060Z,42.20
2023-05-05T15:25:03.881Z,43.60
2023-05-05T15:27:33.379Z,43.90
2023-05-05T15:30:03.038Z,42.90
2023-05-05T15:32:34.564Z,42.80
2023-05-05T15:35:04.446Z,43.90
2023-05-05T15:37:34.464Z,42.90
2023-05-05T15:40:05.828Z,41.20
2023-05-05T15:42:35.829Z,42.20
2023-05-05T15:45:06.733Z,42.30
2023-05-05T15:47:41.882Z,42.20
2023-05-05T15:50:12.845Z,43.60
2023-05-05T15:52:42.963Z,44.50
2023-05-05T15:55:13.504Z,45.20
2023-05-05T15:57:43.407Z,44.30
2023-05-05T16:00:14.127Z,44.70
2023-05-05T16:02:45.650Z,44.10
2023-05-05T16:05:16.225Z,43.40
2023-05-05T16:07:46.192Z,43.40
2023-05-05T16:10:16.076Z,45.00
2023-05-05T16:12:46.240Z,44.50
2023-05-05T16:15:15.893Z,43.10
2023-05-05T16:17:47.239Z,44.90
2023-05-05T16:20:17.038Z,44.40
2023-05-05T16:22:46.647Z,45.30
2023-05-05T16:25:18.820Z,45.90
2023-05-05T16:27:48.637Z,44.50
2023-05-05T16:30:18.332Z,47.00
2023-05-05T16:32:51.685Z,48.20
2023-05-05T16:35:23.177Z,49.00
2023-05-05T16:37:53.200Z,50.60
2023-05-05T16:40:23.315Z,51.10
2023-05-05T16:42:53.470Z,52.00
2023-05-05T16:45:24.696Z,50.60
2023-05-05T16:47:57.012Z,51.60
2023-05-05T16:50:27.174Z,50.90
2023-05-05T16:52:57.102Z,50.50
2023-05-05T16:55:26.927Z,50.90
2023-05-05T16:57:56.808Z,49.30
2023-05-05T17:00:26.522Z,49.70
2023-05-05T17:02:58.104Z,50.30
2023-05-05T17:05:28.127Z,51.20
2023-05-05T17:07:57.907Z,49.30
2023-05-05T17:10:27.516Z,50.80
2023-05-05T17:12:57.060Z,50.70
2023-05-05T17:15:27.024Z,52.30
2023-05-05T17:17:58.388Z,52.30
2023-05-05T17:20:28.286Z,52.00
2023-05-05T17:22:58.107Z,53.10
2023-05-05T17:25:28.529Z,53.70
2023-05-05T17:27:58.647Z,54.40
2023-05-05T17:30:28.872Z,55.70
2023-05-05T17:33:01.455Z,56.10
2023-05-05T17:35:31.350Z,56.80
2023-05-05T17:38:02.252Z,57.80
2023-05-05T17:40:32.109Z,58.50
2023-05-05T17:43:01.922Z,59.40
2023-05-05T17:45:31.779Z,60.00
2023-05-05T17:48:03.078Z,60.50
2023-05-05T17:50:32.672Z,61.80
2023-05-05T17:53:02.320Z,63.40
2023-05-05T17:55:32.318Z,64.90
2023-05-05T17:58:01.820Z,66.10
2023-05-05T18:00:31.330Z,66.60
2023-05-05T18:03:02.846Z,68.20
2023-05-05T18:05:32.790Z,69.10
2023-05-05T18:08:02.923Z,69.80
2023-05-05T18:10:32.712Z,71.50
2023-05-05T18:13:02.861Z,71.20
2023-05-05T18:15:33.406Z,72.20
2023-05-05T18:33:07.868Z,73.00
2023-05-05T18:35:37.601Z,75.10
2023-05-05T18:45:38.590Z,75.60
2023-05-05T18:48:10.837Z,76.50
2023-05-05T18:50:40.868Z,76.20
2023-05-05T19:15:45.449Z,77.40
2023-05-05T19:18:16.789Z,76.70
2023-05-05T19:20:46.895Z,77.30
2023-05-05T19:23:17.231Z,77.20
2023-05-05T19:25:47.049Z,77.40
2023-05-05T19:28:16.948Z,78.80
2023-05-05T19:30:49.047Z,78.20
2023-05-05T19:33:20.485Z,77.90
2023-05-05T19:35:50.387Z,79.40
2023-05-05T19:38:20.408Z,80.30
2023-05-05T19:40:50.006Z,81.00
2023-05-05T19:43:19.604Z,81.80
2023-05-05T19:45:51.509Z,82.70
2023-05-05T19:48:23.126Z,84.00
2023-05-05T19:50:53.549Z,84.20
2023-05-05T19:53:24.816Z,84.60
2023-05-05T19:55:54.722Z,86.20
2023-05-05T19:58:24.828Z,85.80
2023-05-05T20:00:54.950Z,85.70
2023-05-05T20:03:26.889Z,86.80
2023-05-05T20:05:57.138Z,86.80
2023-05-05T20:08:29.610Z,88.20
2023-05-05T20:10:59.525Z,88.40
2023-05-05T20:13:29.445Z,88.70
2023-05-05T20:15:59.427Z,90.00
2023-05-05T20:18:30.805Z,90.20
2023-05-05T20:21:00.707Z,90.60
2023-05-05T20:23:30.730Z,91.20
2023-05-05T20:26:00.672Z,91.30
2023-05-05T20:28:30.571Z,92.00
2023-05-05T20:31:01.190Z,92.10
2023-05-05T20:33:32.557Z,92.50
2023-05-05T20:36:02.366Z,92.50
2023-05-05T20:38:32.163Z,92.90
2023-05-05T20:41:02.005Z,92.90
2023-05-05T20:43:31.911Z,92.70
2023-05-05T20:46:03.132Z,92.80
2023-05-05T20:48:34.178Z,92.90
2023-05-05T20:51:05.996Z,93.50
2023-05-05T20:53:35.864Z,93.60
2023-05-05T20:56:06.425Z,93.70
2023-05-05T20:58:37.849Z,93.60
2023-05-05T21:01:07.734Z,93.50
2023-05-05T21:03:39.412Z,93.90
2023-05-05T21:06:09.127Z,94.40
2023-05-05T21:08:39.952Z,94.80
2023-05-05T21:11:11.708Z,95.20
2023-05-05T21:13:41.407Z,95.30
2023-05-05T21:16:11.706Z,95.10
2023-05-05T21:18:47.112Z,95.20
2023-05-05T21:21:16.886Z,95.70
2023-05-05T21:23:49.367Z,96.00
2023-05-05T21:26:19.381Z,96.40
2023-05-05T21:28:49.207Z,97.00
2023-05-05T21:31:22.288Z,97.30
2023-05-05T21:33:54.658Z,97.30
2023-05-05T21:36:25.078Z,97.30
2023-05-05T21:38:57.767Z,97.20
2023-05-05T21:41:28.981Z,97.50
2023-05-05T21:43:59.752Z,97.80
2023-05-05T21:46:29.699Z,97.60
2023-05-05T21:49:01.310Z,97.70
2023-05-05T21:51:31.527Z,97.80
2023-05-05T21:54:01.242Z,97.90
2023-05-05T21:56:30.642Z,98.10
2023-05-05T21:59:00.342Z,98.10
2023-05-05T22:01:30.217Z,98.10
2023-05-05T22:04:01.658Z,98.50
2023-05-05T22:06:32.852Z,98.50
2023-05-05T22:09:02.776Z,98.90
2023-05-05T22:11:32.473Z,99.10
2023-05-05T22:14:02.092Z,99.10
2023-05-05T22:16:31.782Z,98.90
2023-05-05T22:19:03.054Z,98.90
2023-05-05T22:21:32.649Z,98.70
2023-05-05T22:24:02.470Z,98.70
2023-05-05T22:26:32.279Z,99.00
2023-05-05T22:29:01.886Z,99.00
2023-05-05T22:31:31.512Z,98.80
2023-05-05T22:34:02.839Z,99.60
2023-05-05T22:36:32.971Z,99.80
2023-05-05T22:39:03.075Z,99.90
2023-05-05T22:41:33.389Z,99.90
2023-05-05T22:44:03.208Z,99.90
2023-05-05T22:46:33.191Z,99.90
2023-05-05T22:49:04.540Z,99.90
2023-05-05T22:51:34.594Z,99.90
2023-05-05T22:54:04.191Z,99.90
2023-05-05T22:56:34.003Z,99.90
2023-05-05T22:59:03.817Z,99.90
2023-05-05T23:01:35.563Z,99.90
2023-05-05T23:04:08.497Z,99.90
2023-05-05T23:06:40.121Z,99.90
2023-05-05T23:09:10.238Z,99.90
2023-05-05T23:11:40.055Z,99.90
2023-05-05T23:14:09.856Z,99.90
2023-05-05T23:16:39.488Z,99.90
2023-05-05T23:19:10.983Z,99.90
2023-05-05T23:21:52.157Z,99.90
2023-05-05T23:24:23.968Z,99.90
2023-05-05T23:26:53.773Z,99.90
2023-05-05T23:29:23.690Z,99.90
2023-05-05T23:31:53.301Z,99.90
2023-05-05T23:34:24.842Z,99.90
2023-05-05T23:36:54.534Z,99.90
2023-05-05T23:39:24.153Z,99.90
2023-05-05T23:41:53.970Z,99.90
2023-05-05T23:44:23.780Z,99.90
2023-05-05T23:46:53.603Z,99.90
2023-05-05T23:49:26.939Z,99.90
2023-05-05T23:51:58.847Z,99.90
2023-05-05T23:54:28.561Z,99.90
2023-05-05T23:56:59.086Z,99.90
2023-05-05T23:59:28.898Z,99.90
